Ashley, Pennsylvania
Current Conditions -  °F | °C
As of 6:54 PM on Sunday 25 Jan 2015 (Local Time) from KAVP Reporting Station
Broken Clouds Broken Clouds  
Wind Chill: 18°   Ceiling: 4900
Heat Index: 26°   Visibility: 10mi
Dew Point: 11°   Wind: 8mph
Humidity: 53%   Direction: 20°NNE
Pressure: 29.9"   Gusts: NA
Location:  41.1921°N, 75.9213°W
Report Text: KAVP 252354Z AUTO 02007KT 10SM BKN049 M03/M12 A2990 RMK AO2 SLP132 T10331117 10011 21033 53028
Loading
Personal Weather Stations






























Interactive Weather Map New forecast layout! Learn more

10-Day Weather Forecast

Advertisements
Track Severe Weather on mobile